sensor_id;sensor_type;location;lat;lon;timestamp;P1;durP1;ratioP1;P2;durP2;ratioP2
52744;SDS011;38637;49.984;20.426;2023-04-01T00:01:52;3.40;;;0.93;;
52744;SDS011;38637;49.984;20.426;2023-04-01T00:04:18;1.07;;;0.70;;
52744;SDS011;38637;49.984;20.426;2023-04-01T00:06:43;2.93;;;0.80;;
52744;SDS011;38637;49.984;20.426;2023-04-01T00:09:08;1.27;;;0.70;;
52744;SDS011;38637;49.984;20.426;2023-04-01T00:11:34;1.87;;;0.80;;
52744;SDS011;38637;49.984;20.426;2023-04-01T00:13:59;3.10;;;1.53;;
52744;SDS011;38637;49.984;20.426;2023-04-01T00:16:25;1.03;;;0.70;;
52744;SDS011;38637;49.984;20.426;2023-04-01T00:18:50;3.47;;;0.80;;
52744;SDS011;38637;49.984;20.426;2023-04-01T00:21:16;1.83;;;0.90;;
52744;SDS011;38637;49.984;20.426;2023-04-01T00:23:42;1.85;;;0.70;;
52744;SDS011;38637;49.984;20.426;2023-04-01T00:26:08;2.78;;;0.90;;
52744;SDS011;38637;49.984;20.426;2023-04-01T00:28:34;1.15;;;0.85;;
52744;SDS011;38637;49.984;20.426;2023-04-01T00:31:03;2.25;;;0.90;;
52744;SDS011;38637;49.984;20.426;2023-04-01T00:33:33;3.78;;;1.25;;
52744;SDS011;38637;49.984;20.426;2023-04-01T00:36:11;1.67;;;0.70;;
52744;SDS011;38637;49.984;20.426;2023-04-01T00:38:39;2.05;;;1.20;;
52744;SDS011;38637;49.984;20.426;2023-04-01T00:41:04;2.57;;;0.93;;
52744;SDS011;38637;49.984;20.426;2023-04-01T00:43:30;2.30;;;0.90;;
52744;SDS011;38637;49.984;20.426;2023-04-01T00:45:56;1.83;;;0.90;;
52744;SDS011;38637;49.984;20.426;2023-04-01T00:48:31;1.23;;;0.80;;
52744;SDS011;38637;49.984;20.426;2023-04-01T00:51:06;2.10;;;1.08;;
52744;SDS011;38637;49.984;20.426;2023-04-01T00:53:34;3.63;;;1.33;;
52744;SDS011;38637;49.984;20.426;2023-04-01T00:56:06;1.10;;;0.80;;
52744;SDS011;38637;49.984;20.426;2023-04-01T00:58:40;1.67;;;0.90;;
52744;SDS011;38637;49.984;20.426;2023-04-01T01:01:08;1.85;;;0.90;;
52744;SDS011;38637;49.984;20.426;2023-04-01T01:03:35;1.17;;;0.70;;
52744;SDS011;38637;49.984;20.426;2023-04-01T01:06:19;1.90;;;0.80;;
52744;SDS011;38637;49.984;20.426;2023-04-01T01:11:40;2.03;;;1.38;;
52744;SDS011;38637;49.984;20.426;2023-04-01T01:14:41;0.90;;;0.70;;
52744;SDS011;38637;49.984;20.426;2023-04-01T01:25:53;1.20;;;1.00;;
52744;SDS011;38637;49.984;20.426;2023-04-01T01:34:12;2.78;;;0.82;;
52744;SDS011;38637;49.984;20.426;2023-04-01T01:36:44;4.03;;;1.00;;
52744;SDS011;38637;49.984;20.426;2023-04-01T01:39:15;2.25;;;1.10;;
52744;SDS011;38637;49.984;20.426;2023-04-01T01:41:42;3.05;;;1.00;;
52744;SDS011;38637;49.984;20.426;2023-04-01T01:44:14;2.33;;;0.77;;
52744;SDS011;38637;49.984;20.426;2023-04-01T01:46:41;1.40;;;0.80;;
52744;SDS011;38637;49.984;20.426;2023-04-01T01:49:09;2.40;;;0.80;;
52744;SDS011;38637;49.984;20.426;2023-04-01T01:51:36;0.70;;;0.70;;
52744;SDS011;38637;49.984;20.426;2023-04-01T01:54:01;2.57;;;0.90;;
52744;SDS011;38637;49.984;20.426;2023-04-01T01:56:27;2.67;;;1.10;;
52744;SDS011;38637;49.984;20.426;2023-04-01T01:58:56;2.53;;;1.00;;
52744;SDS011;38637;49.984;20.426;2023-04-01T02:01:27;1.23;;;0.90;;
52744;SDS011;38637;49.984;20.426;2023-04-01T02:03:55;1.40;;;0.80;;
52744;SDS011;38637;49.984;20.426;2023-04-01T02:06:24;3.42;;;0.95;;
52744;SDS011;38637;49.984;20.426;2023-04-01T02:08:59;2.58;;;0.90;;
52744;SDS011;38637;49.984;20.426;2023-04-01T02:11:35;1.55;;;1.10;;
52744;SDS011;38637;49.984;20.426;2023-04-01T02:14:11;1.20;;;0.90;;
52744;SDS011;38637;49.984;20.426;2023-04-01T02:16:57;2.88;;;0.90;;
52744;SDS011;38637;49.984;20.426;2023-04-01T02:19:27;1.08;;;0.70;;
52744;SDS011;38637;49.984;20.426;2023-04-01T02:21:58;0.98;;;0.70;;
52744;SDS011;38637;49.984;20.426;2023-04-01T02:24:26;2.05;;;1.00;;
52744;SDS011;38637;49.984;20.426;2023-04-01T02:26:55;1.33;;;0.68;;
52744;SDS011;38637;49.984;20.426;2023-04-01T02:29:20;5.30;;;0.90;;
52744;SDS011;38637;49.984;20.426;2023-04-01T02:31:48;1.35;;;0.93;;
52744;SDS011;38637;49.984;20.426;2023-04-01T02:34:15;1.48;;;0.90;;
52744;SDS011;38637;49.984;20.426;2023-04-01T02:36:41;1.83;;;0.90;;
52744;SDS011;38637;49.984;20.426;2023-04-01T02:39:07;2.35;;;0.93;;
52744;SDS011;38637;49.984;20.426;2023-04-01T02:41:38;1.50;;;0.85;;
52744;SDS011;38637;49.984;20.426;2023-04-01T02:44:04;1.88;;;0.80;;
52744;SDS011;38637;49.984;20.426;2023-04-01T02:46:30;1.67;;;1.00;;
52744;SDS011;38637;49.984;20.426;2023-04-01T02:48:55;2.13;;;1.13;;
52744;SDS011;38637;49.984;20.426;2023-04-01T02:51:20;1.20;;;0.73;;
52744;SDS011;38637;49.984;20.426;2023-04-01T02:53:46;3.40;;;1.00;;
52744;SDS011;38637;49.984;20.426;2023-04-01T02:56:11;1.50;;;0.70;;
52744;SDS011;38637;49.984;20.426;2023-04-01T02:58:36;3.43;;;0.60;;
52744;SDS011;38637;49.984;20.426;2023-04-01T03:01:02;6.40;;;1.10;;
52744;SDS011;38637;49.984;20.426;2023-04-01T03:03:27;1.80;;;1.00;;
52744;SDS011;38637;49.984;20.426;2023-04-01T03:05:52;2.87;;;1.13;;
52744;SDS011;38637;49.984;20.426;2023-04-01T03:08:20;1.60;;;1.00;;
52744;SDS011;38637;49.984;20.426;2023-04-01T03:10:46;3.93;;;1.10;;
52744;SDS011;38637;49.984;20.426;2023-04-01T03:13:11;1.20;;;1.00;;
52744;SDS011;38637;49.984;20.426;2023-04-01T03:15:36;1.53;;;0.97;;
52744;SDS011;38637;49.984;20.426;2023-04-01T03:18:02;4.87;;;1.40;;
52744;SDS011;38637;49.984;20.426;2023-04-01T03:20:28;3.15;;;0.98;;
52744;SDS011;38637;49.984;20.426;2023-04-01T03:22:53;5.10;;;1.10;;
52744;SDS011;38637;49.984;20.426;2023-04-01T03:25:18;2.80;;;1.03;;
52744;SDS011;38637;49.984;20.426;2023-04-01T03:27:44;5.07;;;1.10;;
52744;SDS011;38637;49.984;20.426;2023-04-01T03:30:09;2.27;;;1.20;;
52744;SDS011;38637;49.984;20.426;2023-04-01T03:32:35;2.30;;;1.20;;
52744;SDS011;38637;49.984;20.426;2023-04-01T03:35:00;1.70;;;1.07;;
52744;SDS011;38637;49.984;20.426;2023-04-01T03:37:25;1.70;;;1.13;;
52744;SDS011;38637;49.984;20.426;2023-04-01T03:39:51;1.73;;;0.80;;
52744;SDS011;38637;49.984;20.426;2023-04-01T03:42:16;1.70;;;1.03;;
52744;SDS011;38637;49.984;20.426;2023-04-01T03:44:42;1.73;;;1.20;;
52744;SDS011;38637;49.984;20.426;2023-04-01T03:47:07;2.40;;;1.20;;
52744;SDS011;38637;49.984;20.426;2023-04-01T03:49:34;3.00;;;1.00;;
52744;SDS011;38637;49.984;20.426;2023-04-01T03:51:59;3.40;;;1.03;;
52744;SDS011;38637;49.984;20.426;2023-04-01T03:54:24;3.97;;;1.20;;
52744;SDS011;38637;49.984;20.426;2023-04-01T03:56:50;2.33;;;1.20;;
52744;SDS011;38637;49.984;20.426;2023-04-01T03:59:15;1.40;;;1.00;;
52744;SDS011;38637;49.984;20.426;2023-04-01T04:01:41;1.80;;;1.20;;
52744;SDS011;38637;49.984;20.426;2023-04-01T04:04:06;2.67;;;0.90;;
52744;SDS011;38637;49.984;20.426;2023-04-01T04:06:32;1.80;;;1.27;;
52744;SDS011;38637;49.984;20.426;2023-04-01T04:08:58;1.10;;;0.90;;
52744;SDS011;38637;49.984;20.426;2023-04-01T04:11:23;3.53;;;1.20;;
52744;SDS011;38637;49.984;20.426;2023-04-01T04:13:48;2.27;;;1.23;;
52744;SDS011;38637;49.984;20.426;2023-04-01T04:16:14;2.40;;;1.10;;
52744;SDS011;38637;49.984;20.426;2023-04-01T04:18:40;3.28;;;1.00;;
52744;SDS011;38637;49.984;20.426;2023-04-01T04:21:06;3.97;;;1.40;;
52744;SDS011;38637;49.984;20.426;2023-04-01T04:23:32;4.00;;;2.85;;
52744;SDS011;38637;49.984;20.426;2023-04-01T04:26:05;4.47;;;4.07;;
52744;SDS011;38637;49.984;20.426;2023-04-01T04:28:32;6.97;;;3.08;;
52744;SDS011;38637;49.984;20.426;2023-04-01T04:30:58;3.15;;;2.55;;
52744;SDS011;38637;49.984;20.426;2023-04-01T04:33:24;3.13;;;2.40;;
52744;SDS011;38637;49.984;20.426;2023-04-01T04:35:50;3.43;;;1.77;;
52744;SDS011;38637;49.984;20.426;2023-04-01T04:38:16;2.92;;;1.67;;
52744;SDS011;38637;49.984;20.426;2023-04-01T04:40:41;4.93;;;1.87;;
52744;SDS011;38637;49.984;20.426;2023-04-01T04:43:09;2.13;;;1.43;;
52744;SDS011;38637;49.984;20.426;2023-04-01T04:45:36;3.83;;;1.50;;
52744;SDS011;38637;49.984;20.426;2023-04-01T04:48:02;3.63;;;1.53;;
52744;SDS011;38637;49.984;20.426;2023-04-01T04:50:27;2.33;;;1.50;;
52744;SDS011;38637;49.984;20.426;2023-04-01T04:52:52;1.87;;;1.40;;
52744;SDS011;38637;49.984;20.426;2023-04-01T04:55:18;2.63;;;1.40;;
52744;SDS011;38637;49.984;20.426;2023-04-01T04:57:43;1.80;;;1.37;;
52744;SDS011;38637;49.984;20.426;2023-04-01T05:00:09;3.90;;;1.40;;
52744;SDS011;38637;49.984;20.426;2023-04-01T05:02:35;2.40;;;1.20;;
52744;SDS011;38637;49.984;20.426;2023-04-01T05:05:01;2.47;;;1.10;;
52744;SDS011;38637;49.984;20.426;2023-04-01T05:07:26;2.13;;;1.40;;
52744;SDS011;38637;49.984;20.426;2023-04-01T05:09:51;3.17;;;1.43;;
52744;SDS011;38637;49.984;20.426;2023-04-01T05:12:17;2.30;;;1.50;;
52744;SDS011;38637;49.984;20.426;2023-04-01T05:14:42;3.10;;;1.77;;
52744;SDS011;38637;49.984;20.426;2023-04-01T05:17:11;1.70;;;1.60;;
52744;SDS011;38637;49.984;20.426;2023-04-01T05:19:38;3.60;;;2.00;;
52744;SDS011;38637;49.984;20.426;2023-04-01T05:22:03;3.23;;;2.30;;
52744;SDS011;38637;49.984;20.426;2023-04-01T05:24:29;3.00;;;1.83;;
52744;SDS011;38637;49.984;20.426;2023-04-01T05:26:55;2.07;;;1.60;;
52744;SDS011;38637;49.984;20.426;2023-04-01T05:29:21;1.95;;;1.20;;
52744;SDS011;38637;49.984;20.426;2023-04-01T05:31:46;2.67;;;1.83;;
52744;SDS011;38637;49.984;20.426;2023-04-01T05:34:11;1.87;;;1.33;;
52744;SDS011;38637;49.984;20.426;2023-04-01T05:36:38;2.70;;;1.20;;
52744;SDS011;38637;49.984;20.426;2023-04-01T05:39:03;1.37;;;1.00;;
52744;SDS011;38637;49.984;20.426;2023-04-01T05:41:28;1.03;;;0.90;;
52744;SDS011;38637;49.984;20.426;2023-04-01T05:43:54;3.63;;;1.20;;
52744;SDS011;38637;49.984;20.426;2023-04-01T05:46:20;1.20;;;1.10;;
52744;SDS011;38637;49.984;20.426;2023-04-01T05:48:45;3.77;;;1.40;;
52744;SDS011;38637;49.984;20.426;2023-04-01T05:51:12;3.50;;;1.03;;
52744;SDS011;38637;49.984;20.426;2023-04-01T05:53:38;2.58;;;1.10;;
52744;SDS011;38637;49.984;20.426;2023-04-01T05:56:04;1.70;;;1.00;;
52744;SDS011;38637;49.984;20.426;2023-04-01T05:58:29;2.55;;;1.05;;
52744;SDS011;38637;49.984;20.426;2023-04-01T06:01:02;2.67;;;1.57;;
52744;SDS011;38637;49.984;20.426;2023-04-01T06:03:28;3.20;;;0.98;;
52744;SDS011;38637;49.984;20.426;2023-04-01T06:05:54;5.10;;;1.57;;
52744;SDS011;38637;49.984;20.426;2023-04-01T06:08:19;1.70;;;0.93;;
52744;SDS011;38637;49.984;20.426;2023-04-01T06:16:47;3.22;;;1.35;;
52744;SDS011;38637;49.984;20.426;2023-04-01T06:27:36;2.83;;;1.60;;
52744;SDS011;38637;49.984;20.426;2023-04-01T06:35:44;3.30;;;2.08;;
52744;SDS011;38637;49.984;20.426;2023-04-01T06:39:01;2.22;;;1.52;;
52744;SDS011;38637;49.984;20.426;2023-04-01T06:44:43;7.38;;;1.95;;
52744;SDS011;38637;49.984;20.426;2023-04-01T06:47:26;1.70;;;1.30;;
52744;SDS011;38637;49.984;20.426;2023-04-01T06:49:57;3.42;;;1.60;;
52744;SDS011;38637;49.984;20.426;2023-04-01T06:55:40;3.95;;;1.80;;
52744;SDS011;38637;49.984;20.426;2023-04-01T07:00:59;3.13;;;1.38;;
52744;SDS011;38637;49.984;20.426;2023-04-01T07:03:44;3.17;;;1.38;;
52744;SDS011;38637;49.984;20.426;2023-04-01T07:09:16;2.90;;;1.45;;
52744;SDS011;38637;49.984;20.426;2023-04-01T07:12:04;2.92;;;1.42;;
52744;SDS011;38637;49.984;20.426;2023-04-01T07:14:37;3.15;;;0.90;;
52744;SDS011;38637;49.984;20.426;2023-04-01T07:17:08;2.22;;;1.02;;
52744;SDS011;38637;49.984;20.426;2023-04-01T07:22:31;3.67;;;1.20;;
52744;SDS011;38637;49.984;20.426;2023-04-01T07:25:04;3.10;;;1.80;;
52744;SDS011;38637;49.984;20.426;2023-04-01T07:27:52;1.58;;;1.10;;
52744;SDS011;38637;49.984;20.426;2023-04-01T07:30:20;1.25;;;0.77;;
52744;SDS011;38637;49.984;20.426;2023-04-01T07:32:47;4.45;;;1.58;;
52744;SDS011;38637;49.984;20.426;2023-04-01T07:38:17;4.90;;;1.08;;
52744;SDS011;38637;49.984;20.426;2023-04-01T07:44:06;1.70;;;1.10;;
52744;SDS011;38637;49.984;20.426;2023-04-01T07:57:36;2.67;;;1.00;;
52744;SDS011;38637;49.984;20.426;2023-04-01T08:00:47;4.13;;;1.05;;
52744;SDS011;38637;49.984;20.426;2023-04-01T08:06:11;2.05;;;0.90;;
52744;SDS011;38637;49.984;20.426;2023-04-01T08:08:57;1.35;;;0.90;;
52744;SDS011;38637;49.984;20.426;2023-04-01T08:22:22;2.03;;;1.20;;
52744;SDS011;38637;49.984;20.426;2023-04-01T08:25:10;4.38;;;1.05;;
52744;SDS011;38637;49.984;20.426;2023-04-01T08:27:46;3.28;;;1.20;;
52744;SDS011;38637;49.984;20.426;2023-04-01T08:33:17;2.33;;;1.00;;
52744;SDS011;38637;49.984;20.426;2023-04-01T08:35:51;3.03;;;1.23;;
52744;SDS011;38637;49.984;20.426;2023-04-01T08:38:31;3.03;;;1.10;;
52744;SDS011;38637;49.984;20.426;2023-04-01T08:41:20;2.08;;;1.27;;
52744;SDS011;38637;49.984;20.426;2023-04-01T08:50:00;2.28;;;1.23;;
52744;SDS011;38637;49.984;20.426;2023-04-01T08:55:13;1.33;;;1.08;;
52744;SDS011;38637;49.984;20.426;2023-04-01T08:58:02;4.25;;;1.40;;
52744;SDS011;38637;49.984;20.426;2023-04-01T09:09:32;2.35;;;1.10;;
52744;SDS011;38637;49.984;20.426;2023-04-01T09:12:25;2.95;;;1.83;;
52744;SDS011;38637;49.984;20.426;2023-04-01T09:25:58;2.67;;;1.30;;
52744;SDS011;38637;49.984;20.426;2023-04-01T09:29:05;3.13;;;1.17;;
52744;SDS011;38637;49.984;20.426;2023-04-01T09:34:53;2.10;;;1.30;;
52744;SDS011;38637;49.984;20.426;2023-04-01T09:41:00;2.35;;;1.05;;
52744;SDS011;38637;49.984;20.426;2023-04-01T09:52:10;4.13;;;1.00;;
52744;SDS011;38637;49.984;20.426;2023-04-01T10:00:29;1.65;;;0.90;;
52744;SDS011;38637;49.984;20.426;2023-04-01T10:09:03;1.67;;;0.90;;
52744;SDS011;38637;49.984;20.426;2023-04-01T10:17:54;2.92;;;1.40;;
52744;SDS011;38637;49.984;20.426;2023-04-01T10:21:32;2.50;;;1.27;;
52744;SDS011;38637;49.984;20.426;2023-04-01T10:29:32;1.23;;;1.00;;
52744;SDS011;38637;49.984;20.426;2023-04-01T10:40:53;5.43;;;1.10;;
52744;SDS011;38637;49.984;20.426;2023-04-01T10:43:46;1.27;;;0.88;;
52744;SDS011;38637;49.984;20.426;2023-04-01T10:49:10;2.03;;;0.75;;
52744;SDS011;38637;49.984;20.426;2023-04-01T11:00:08;1.88;;;1.00;;
52744;SDS011;38637;49.984;20.426;2023-04-01T11:11:45;2.85;;;1.98;;
52744;SDS011;38637;49.984;20.426;2023-04-01T11:22:24;1.95;;;1.60;;
52744;SDS011;38637;49.984;20.426;2023-04-01T11:46:46;1.38;;;1.23;;
52744;SDS011;38637;49.984;20.426;2023-04-01T11:54:57;6.22;;;1.27;;
52744;SDS011;38637;49.984;20.426;2023-04-01T11:57:50;5.50;;;1.20;;
52744;SDS011;38637;49.984;20.426;2023-04-01T12:08:46;0.98;;;0.90;;
52744;SDS011;38637;49.984;20.426;2023-04-01T12:11:28;1.88;;;0.88;;
52744;SDS011;38637;49.984;20.426;2023-04-01T12:19:32;1.35;;;0.90;;
52744;SDS011;38637;49.984;20.426;2023-04-01T12:24:45;1.45;;;1.17;;
52744;SDS011;38637;49.984;20.426;2023-04-01T12:27:32;1.30;;;1.15;;
52744;SDS011;38637;49.984;20.426;2023-04-01T12:50:21;1.98;;;1.42;;
52744;SDS011;38637;49.984;20.426;2023-04-01T13:12:05;2.10;;;1.70;;
52744;SDS011;38637;49.984;20.426;2023-04-01T13:17:51;2.50;;;1.40;;
52744;SDS011;38637;49.984;20.426;2023-04-01T13:29:25;2.45;;;1.38;;
52744;SDS011;38637;49.984;20.426;2023-04-01T13:40:33;2.92;;;1.63;;
52744;SDS011;38637;49.984;20.426;2023-04-01T13:42:56;1.42;;;1.30;;
52744;SDS011;38637;49.984;20.426;2023-04-01T13:48:30;2.83;;;1.52;;
52744;SDS011;38637;49.984;20.426;2023-04-01T13:53:39;2.95;;;1.75;;
52744;SDS011;38637;49.984;20.426;2023-04-01T14:07:47;2.03;;;1.70;;
52744;SDS011;38637;49.984;20.426;2023-04-01T14:13:13;2.75;;;1.70;;
52744;SDS011;38637;49.984;20.426;2023-04-01T14:16:00;1.73;;;1.40;;
52744;SDS011;38637;49.984;20.426;2023-04-01T14:27:26;2.65;;;1.98;;
52744;SDS011;38637;49.984;20.426;2023-04-01T14:29:57;2.97;;;2.20;;
52744;SDS011;38637;49.984;20.426;2023-04-01T14:32:41;2.30;;;1.83;;
52744;SDS011;38637;49.984;20.426;2023-04-01T14:37:48;1.75;;;1.40;;
52744;SDS011;38637;49.984;20.426;2023-04-01T14:43:27;1.73;;;1.08;;
52744;SDS011;38637;49.984;20.426;2023-04-01T14:48:34;4.03;;;1.30;;
52744;SDS011;38637;49.984;20.426;2023-04-01T14:51:15;2.38;;;1.20;;
52744;SDS011;38637;49.984;20.426;2023-04-01T14:53:49;2.05;;;1.08;;
52744;SDS011;38637;49.984;20.426;2023-04-01T14:56:35;11.48;;;1.50;;
52744;SDS011;38637;49.984;20.426;2023-04-01T15:02:06;7.18;;;2.20;;
52744;SDS011;38637;49.984;20.426;2023-04-01T15:27:42;3.30;;;2.20;;
52744;SDS011;38637;49.984;20.426;2023-04-01T15:30:32;5.60;;;3.25;;
52744;SDS011;38637;49.984;20.426;2023-04-01T15:38:48;4.43;;;2.75;;
52744;SDS011;38637;49.984;20.426;2023-04-01T15:41:16;2.78;;;2.45;;
52744;SDS011;38637;49.984;20.426;2023-04-01T15:43:49;3.05;;;2.35;;
52744;SDS011;38637;49.984;20.426;2023-04-01T16:13:54;4.88;;;3.92;;
52744;SDS011;38637;49.984;20.426;2023-04-01T16:16:45;5.00;;;3.95;;
52744;SDS011;38637;49.984;20.426;2023-04-01T16:21:54;4.50;;;3.58;;
52744;SDS011;38637;49.984;20.426;2023-04-01T16:24:45;8.00;;;2.92;;
52744;SDS011;38637;49.984;20.426;2023-04-01T16:27:36;5.43;;;3.20;;
52744;SDS011;38637;49.984;20.426;2023-04-01T16:33:00;3.40;;;2.40;;
52744;SDS011;38637;49.984;20.426;2023-04-01T16:38:42;4.40;;;2.67;;
52744;SDS011;38637;49.984;20.426;2023-04-01T16:42:08;3.53;;;2.70;;
52744;SDS011;38637;49.984;20.426;2023-04-01T16:46:44;5.23;;;3.43;;
52744;SDS011;38637;49.984;20.426;2023-04-01T16:49:23;4.20;;;3.25;;
52744;SDS011;38637;49.984;20.426;2023-04-01T16:54:57;4.10;;;3.17;;
52744;SDS011;38637;49.984;20.426;2023-04-01T17:00:36;7.28;;;4.05;;
52744;SDS011;38637;49.984;20.426;2023-04-01T17:11:37;6.25;;;3.55;;
52744;SDS011;38637;49.984;20.426;2023-04-01T17:22:17;9.13;;;6.88;;
52744;SDS011;38637;49.984;20.426;2023-04-01T17:28:07;10.35;;;7.55;;
52744;SDS011;38637;49.984;20.426;2023-04-01T17:31:01;10.40;;;7.38;;
52744;SDS011;38637;49.984;20.426;2023-04-01T17:44:21;21.70;;;14.23;;
52744;SDS011;38637;49.984;20.426;2023-04-01T17:50:14;23.20;;;15.48;;
52744;SDS011;38637;49.984;20.426;2023-04-01T18:09:09;18.92;;;13.73;;
52744;SDS011;38637;49.984;20.426;2023-04-01T18:11:45;13.75;;;10.80;;
52744;SDS011;38637;49.984;20.426;2023-04-01T18:38:40;11.70;;;9.02;;
52744;SDS011;38637;49.984;20.426;2023-04-01T18:41:34;16.17;;;10.43;;
52744;SDS011;38637;49.984;20.426;2023-04-01T18:44:43;16.38;;;11.82;;
52744;SDS011;38637;49.984;20.426;2023-04-01T18:52:54;19.70;;;13.25;;
52744;SDS011;38637;49.984;20.426;2023-04-01T19:00:48;16.52;;;11.45;;
52744;SDS011;38637;49.984;20.426;2023-04-01T19:03:34;18.42;;;11.40;;
52744;SDS011;38637;49.984;20.426;2023-04-01T19:08:55;13.88;;;10.60;;
52744;SDS011;38637;49.984;20.426;2023-04-01T19:11:44;18.33;;;9.48;;
52744;SDS011;38637;49.984;20.426;2023-04-01T19:22:20;13.07;;;10.15;;
52744;SDS011;38637;49.984;20.426;2023-04-01T19:30:53;15.68;;;11.32;;
52744;SDS011;38637;49.984;20.426;2023-04-01T19:33:25;16.85;;;10.75;;
52744;SDS011;38637;49.984;20.426;2023-04-01T19:36:00;15.20;;;10.38;;
52744;SDS011;38637;49.984;20.426;2023-04-01T19:38:40;16.25;;;11.60;;
52744;SDS011;38637;49.984;20.426;2023-04-01T19:46:57;13.05;;;10.23;;
52744;SDS011;38637;49.984;20.426;2023-04-01T19:52:51;14.80;;;10.43;;
52744;SDS011;38637;49.984;20.426;2023-04-01T19:55:35;17.23;;;11.35;;
52744;SDS011;38637;49.984;20.426;2023-04-01T19:58:27;13.57;;;10.05;;
52744;SDS011;38637;49.984;20.426;2023-04-01T20:01:06;13.50;;;9.77;;
52744;SDS011;38637;49.984;20.426;2023-04-01T20:03:39;14.90;;;10.00;;
52744;SDS011;38637;49.984;20.426;2023-04-01T20:14:40;13.60;;;10.48;;
52744;SDS011;38637;49.984;20.426;2023-04-01T20:17:15;15.68;;;11.73;;
52744;SDS011;38637;49.984;20.426;2023-04-01T20:20:03;16.23;;;11.35;;
52744;SDS011;38637;49.984;20.426;2023-04-01T20:27:45;17.00;;;12.13;;
52744;SDS011;38637;49.984;20.426;2023-04-01T20:33:25;17.85;;;13.02;;
52744;SDS011;38637;49.984;20.426;2023-04-01T20:57:57;16.88;;;13.23;;
52744;SDS011;38637;49.984;20.426;2023-04-01T21:06:21;16.25;;;12.55;;
52744;SDS011;38637;49.984;20.426;2023-04-01T21:17:50;17.75;;;13.60;;
52744;SDS011;38637;49.984;20.426;2023-04-01T21:20:18;16.98;;;13.75;;
52744;SDS011;38637;49.984;20.426;2023-04-01T21:26:08;18.67;;;14.52;;
52744;SDS011;38637;49.984;20.426;2023-04-01T22:10:30;23.90;;;18.42;;
52744;SDS011;38637;49.984;20.426;2023-04-01T22:13:06;22.95;;;16.50;;
52744;SDS011;38637;49.984;20.426;2023-04-01T22:20:52;23.10;;;19.40;;
52744;SDS011;38637;49.984;20.426;2023-04-01T22:26:41;21.40;;;17.33;;
52744;SDS011;38637;49.984;20.426;2023-04-01T22:43:21;29.90;;;19.45;;
52744;SDS011;38637;49.984;20.426;2023-04-01T22:45:59;24.40;;;19.70;;
52744;SDS011;38637;49.984;20.426;2023-04-01T22:48:42;28.80;;;20.02;;
52744;SDS011;38637;49.984;20.426;2023-04-01T22:54:11;26.73;;;21.77;;
52744;SDS011;38637;49.984;20.426;2023-04-01T22:56:48;30.48;;;22.23;;
52744;SDS011;38637;49.984;20.426;2023-04-01T23:02:06;27.65;;;21.95;;
52744;SDS011;38637;49.984;20.426;2023-04-01T23:04:40;29.95;;;21.38;;
52744;SDS011;38637;49.984;20.426;2023-04-01T23:10:02;27.10;;;20.70;;
52744;SDS011;38637;49.984;20.426;2023-04-01T23:12:31;25.45;;;19.92;;
52744;SDS011;38637;49.984;20.426;2023-04-01T23:14:58;26.15;;;20.88;;
52744;SDS011;38637;49.984;20.426;2023-04-01T23:25:18;28.17;;;21.58;;
52744;SDS011;38637;49.984;20.426;2023-04-01T23:35:54;29.15;;;22.17;;
52744;SDS011;38637;49.984;20.426;2023-04-01T23:38:29;27.45;;;21.25;;
52744;SDS011;38637;49.984;20.426;2023-04-01T23:40:57;25.92;;;21.73;;
52744;SDS011;38637;49.984;20.426;2023-04-01T23:43:27;24.40;;;20.93;;
52744;SDS011;38637;49.984;20.426;2023-04-01T23:45:56;28.00;;;21.77;;
52744;SDS011;38637;49.984;20.426;2023-04-01T23:48:26;25.58;;;22.15;;
52744;SDS011;38637;49.984;20.426;2023-04-01T23:50:56;26.98;;;21.95;;
52744;SDS011;38637;49.984;20.426;2023-04-01T23:53:24;26.75;;;20.88;;
52744;SDS011;38637;49.984;20.426;2023-04-01T23:55:51;27.65;;;21.10;;
